createdAt,value
2019-02-14T00:00:51.907Z,41.20
2019-02-14T00:03:24.426Z,40.73
2019-02-14T00:05:54.210Z,43.85
2019-02-14T00:08:23.188Z,44.53
2019-02-14T00:10:53.808Z,43.60
2019-02-14T00:13:25.900Z,42.55
2019-02-14T00:15:59.172Z,40.48
2019-02-14T00:18:29.701Z,42.33
2019-02-14T00:21:03.040Z,43.13
2019-02-14T00:23:39.899Z,41.85
2019-02-14T00:26:08.897Z,42.27
2019-02-14T00:28:41.308Z,45.10
2019-02-14T00:31:10.284Z,46.70
2019-02-14T00:33:39.241Z,44.08
2019-02-14T00:36:08.793Z,42.83
2019-02-14T00:38:39.294Z,48.87
2019-02-14T00:41:08.579Z,45.98
2019-02-14T00:43:39.287Z,44.67
2019-02-14T00:46:10.723Z,48.55
2019-02-14T00:48:39.591Z,48.05
2019-02-14T00:51:08.545Z,50.25
2019-02-14T00:53:41.811Z,46.42
2019-02-14T00:56:12.313Z,52.33
2019-02-14T00:58:44.309Z,50.75
2019-02-14T01:01:17.601Z,48.68
2019-02-14T01:03:46.827Z,44.50
2019-02-14T01:06:16.025Z,51.27
2019-02-14T01:08:46.045Z,50.80
2019-02-14T01:11:16.781Z,46.80
2019-02-14T01:13:48.773Z,54.40
2019-02-14T01:16:19.991Z,50.20
2019-02-14T01:18:49.089Z,56.75
2019-02-14T01:21:18.056Z,51.10
2019-02-14T01:23:47.021Z,51.40
2019-02-14T01:26:19.149Z,48.87
2019-02-14T01:28:51.050Z,50.58
2019-02-14T01:31:23.107Z,48.55
2019-02-14T01:33:52.599Z,52.17
2019-02-14T01:36:21.635Z,53.13
2019-02-14T01:38:50.661Z,52.78
2019-02-14T01:41:23.881Z,47.83
2019-02-14T01:43:55.922Z,50.33
2019-02-14T01:46:28.835Z,47.25
2019-02-14T01:48:57.179Z,49.42
2019-02-14T01:51:29.333Z,49.70
2019-02-14T01:54:01.416Z,48.70
2019-02-14T01:56:30.366Z,46.20
2019-02-14T01:58:59.340Z,48.70
2019-02-14T02:01:29.042Z,51.50
2019-02-14T02:03:58.224Z,47.80
2019-02-14T02:08:58.411Z,53.10
2019-02-14T02:11:29.726Z,48.68
2019-02-14T02:14:03.708Z,49.20
2019-02-14T02:16:36.714Z,54.93
2019-02-14T02:19:08.342Z,56.50
2019-02-14T02:21:37.333Z,46.33
2019-02-14T02:24:09.556Z,53.35
2019-02-14T02:26:38.594Z,47.95
2019-02-14T02:29:10.839Z,51.92
2019-02-14T02:31:39.838Z,51.63
2019-02-14T02:34:08.796Z,48.68
2019-02-14T02:36:41.015Z,50.63
2019-02-14T02:39:09.974Z,53.23
2019-02-14T02:41:39.021Z,51.00
2019-02-14T02:44:09.636Z,49.33
2019-02-14T02:46:44.845Z,57.62
2019-02-14T02:49:13.798Z,53.45
2019-02-14T02:51:55.330Z,54.88
2019-02-14T02:54:24.911Z,54.38
2019-02-14T02:56:57.116Z,51.65
2019-02-14T02:59:26.196Z,55.92
2019-02-14T03:01:55.175Z,51.88
2019-02-14T03:04:24.980Z,53.28
2019-02-14T03:06:53.940Z,51.98
2019-02-14T03:09:22.902Z,50.12
2019-02-14T03:11:53.530Z,48.75
2019-02-14T03:14:22.704Z,44.45
2019-02-14T03:16:51.634Z,48.07
2019-02-14T03:19:22.374Z,50.05
2019-02-14T03:21:51.507Z,47.80
2019-02-14T03:24:22.743Z,49.20
2019-02-14T03:26:53.817Z,49.00
2019-02-14T03:29:22.778Z,50.88
2019-02-14T03:31:52.011Z,46.15
2019-02-14T03:34:21.341Z,47.70
2019-02-14T03:36:51.961Z,46.48
2019-02-14T03:39:22.029Z,49.42
2019-02-14T03:41:55.293Z,46.63
2019-02-14T03:44:28.114Z,45.75
2019-02-14T03:47:00.418Z,49.00
2019-02-14T03:49:31.745Z,50.50
2019-02-14T03:52:03.363Z,44.08
2019-02-14T03:54:34.290Z,44.85
2019-02-14T03:57:03.281Z,48.25
2019-02-14T03:59:32.283Z,46.40
2019-02-14T04:02:01.591Z,46.02
2019-02-14T04:04:32.626Z,46.25
2019-02-14T04:07:03.137Z,45.85
2019-02-14T04:09:33.677Z,45.78
2019-02-14T04:12:03.321Z,45.73
2019-02-14T04:14:34.071Z,50.30
2019-02-14T04:17:03.044Z,43.15
2019-02-14T04:19:36.007Z,47.38
2019-02-14T04:22:04.648Z,45.50
2019-02-14T04:24:33.661Z,45.20
2019-02-14T04:27:07.796Z,44.63
2019-02-14T04:29:36.774Z,46.95
2019-02-14T04:32:05.820Z,45.85
2019-02-14T04:34:37.908Z,46.10
2019-02-14T04:37:13.741Z,49.03
2019-02-14T04:39:45.383Z,48.17
2019-02-14T04:42:15.631Z,45.25
2019-02-14T04:44:50.570Z,42.73
2019-02-14T04:47:19.531Z,49.08
2019-02-14T04:49:48.649Z,46.48
2019-02-14T04:52:17.606Z,46.08
2019-02-14T04:54:46.583Z,46.80
2019-02-14T04:57:16.818Z,48.05
2019-02-14T04:59:47.416Z,42.38
2019-02-14T05:02:18.038Z,52.23
2019-02-14T05:04:48.088Z,49.35
2019-02-14T05:07:17.067Z,47.30
2019-02-14T05:09:46.034Z,47.23
2019-02-14T05:12:30.902Z,47.23
2019-02-14T05:14:59.878Z,48.20
2019-02-14T05:17:29.034Z,49.35
2019-02-14T05:19:57.963Z,46.37
2019-02-14T05:22:26.985Z,50.73
2019-02-14T05:24:55.991Z,50.12
2019-02-14T05:27:28.394Z,46.48
2019-02-14T05:29:57.434Z,53.50
2019-02-14T05:32:26.454Z,48.15
2019-02-14T05:35:00.864Z,46.40
2019-02-14T05:37:30.509Z,44.05
2019-02-14T05:39:59.554Z,47.83
2019-02-14T05:42:30.069Z,47.78
2019-02-14T05:45:02.852Z,50.00
2019-02-14T05:47:34.952Z,48.25
2019-02-14T05:50:05.583Z,49.05
2019-02-14T05:52:36.089Z,50.67
2019-02-14T05:55:06.627Z,47.08
2019-02-14T05:57:35.625Z,48.80
2019-02-14T06:00:06.623Z,50.38
2019-02-14T06:02:35.589Z,51.00
2019-02-14T06:05:05.634Z,48.83
2019-02-14T06:07:37.246Z,48.02
2019-02-14T06:10:09.759Z,51.58
2019-02-14T06:12:39.934Z,49.33
2019-02-14T06:15:12.364Z,51.13
2019-02-14T06:17:42.366Z,55.63
2019-02-14T06:20:12.533Z,51.88
2019-02-14T06:22:41.557Z,57.15
2019-02-14T06:25:13.118Z,53.98
2019-02-14T06:27:43.976Z,58.40
2019-02-14T06:30:13.723Z,57.33
2019-02-14T06:32:42.712Z,50.83
2019-02-14T06:35:13.802Z,58.55
2019-02-14T06:37:47.114Z,56.10
2019-02-14T06:40:18.757Z,51.08
2019-02-14T06:42:47.733Z,56.98
2019-02-14T06:45:19.121Z,57.08
2019-02-14T06:47:50.851Z,54.55
2019-02-14T06:50:25.665Z,56.77
2019-02-14T06:53:01.963Z,62.33
2019-02-14T06:55:35.441Z,62.65
2019-02-14T06:58:05.498Z,62.53
2019-02-14T07:00:35.685Z,54.85
2019-02-14T07:03:06.329Z,54.80
2019-02-14T07:05:39.226Z,55.17
2019-02-14T07:08:08.294Z,62.00
2019-02-14T07:10:42.380Z,55.83
2019-02-14T07:13:11.360Z,55.15
2019-02-14T07:15:40.302Z,53.90
2019-02-14T07:18:18.447Z,59.15
2019-02-14T07:20:47.401Z,55.10
2019-02-14T07:23:16.374Z,55.35
2019-02-14T07:25:45.329Z,54.80
2019-02-14T07:28:17.098Z,53.90
2019-02-14T07:30:49.234Z,49.83
2019-02-14T07:33:18.228Z,51.75
2019-02-14T07:35:48.548Z,51.02
2019-02-14T07:38:22.105Z,54.65
2019-02-14T07:40:51.068Z,51.42
2019-02-14T07:43:20.083Z,50.55
2019-02-14T07:45:49.118Z,54.83
2019-02-14T07:48:19.754Z,50.25
2019-02-14T07:50:55.840Z,48.78
2019-02-14T07:53:26.777Z,51.90
2019-02-14T07:55:56.317Z,47.65
2019-02-14T07:58:26.936Z,48.92
2019-02-14T08:01:09.354Z,53.15
2019-02-14T08:03:38.414Z,47.40
2019-02-14T08:06:07.440Z,50.05
2019-02-14T08:08:38.583Z,54.93
2019-02-14T08:11:07.588Z,51.65
2019-02-14T08:13:36.543Z,54.08
2019-02-14T08:16:05.515Z,55.00
2019-02-14T08:18:36.610Z,53.50
2019-02-14T08:21:06.864Z,57.45
2019-02-14T08:23:38.989Z,55.58
2019-02-14T08:26:11.140Z,51.05
2019-02-14T08:28:40.888Z,51.63
2019-02-14T08:31:09.872Z,51.80
2019-02-14T08:33:40.084Z,54.08
2019-02-14T08:36:10.705Z,49.45
2019-02-14T08:38:46.735Z,50.05
2019-02-14T08:41:19.735Z,52.23
2019-02-14T08:43:52.301Z,47.78
2019-02-14T08:46:24.383Z,55.03
2019-02-14T08:48:54.347Z,49.35
2019-02-14T08:51:27.433Z,52.73
2019-02-14T08:53:58.137Z,55.00
2019-02-14T08:56:30.241Z,50.08
2019-02-14T08:59:00.429Z,52.10
2019-02-14T09:01:32.595Z,47.75
2019-02-14T09:04:01.635Z,51.15
2019-02-14T09:06:30.645Z,50.40
2019-02-14T09:09:01.913Z,50.00
2019-02-14T09:11:32.475Z,47.65
2019-02-14T09:14:01.802Z,49.35
2019-02-14T09:16:32.989Z,49.75
2019-02-14T09:19:05.100Z,51.95
2019-02-14T09:21:37.167Z,46.45
2019-02-14T09:24:06.135Z,49.23
2019-02-14T09:26:38.257Z,47.48
2019-02-14T09:29:09.305Z,44.13
2019-02-14T09:31:38.265Z,48.40
2019-02-14T09:34:07.390Z,51.13
2019-02-14T09:36:36.626Z,45.98
2019-02-14T09:39:07.807Z,46.40
2019-02-14T09:41:36.782Z,48.02
2019-02-14T09:44:06.323Z,50.55
2019-02-14T09:46:35.275Z,50.33
2019-02-14T09:49:04.306Z,53.42
2019-02-14T09:51:33.261Z,54.00
2019-02-14T09:54:04.581Z,51.10
2019-02-14T09:56:38.113Z,53.05
2019-02-14T09:59:08.704Z,51.37
2019-02-14T10:01:44.028Z,51.73
2019-02-14T10:04:13.081Z,50.63
2019-02-14T10:06:49.173Z,46.05
2019-02-14T10:09:36.819Z,49.05
2019-02-14T10:12:05.790Z,52.05
2019-02-14T10:14:34.772Z,50.15
2019-02-14T10:17:06.789Z,48.80
2019-02-14T10:19:35.753Z,44.85
2019-02-14T10:22:04.923Z,47.88
2019-02-14T10:24:36.466Z,42.73
2019-02-14T10:27:07.064Z,47.03
2019-02-14T10:29:42.226Z,49.75
2019-02-14T10:32:15.099Z,45.33
2019-02-14T10:34:44.090Z,43.85
2019-02-14T10:37:13.074Z,47.53
2019-02-14T10:39:42.200Z,48.38
2019-02-14T10:42:11.536Z,48.50
2019-02-14T10:44:40.538Z,43.65
2019-02-14T10:47:11.040Z,45.30
2019-02-14T10:49:40.163Z,45.15
2019-02-14T10:52:09.154Z,44.67
2019-02-14T10:54:38.144Z,44.88
2019-02-14T10:57:07.471Z,40.40
2019-02-14T10:59:37.973Z,44.73
2019-02-14T11:02:08.193Z,42.33
2019-02-14T11:04:37.172Z,42.05
2019-02-14T11:07:07.066Z,43.05
2019-02-14T11:09:38.352Z,36.00
2019-02-14T11:12:06.770Z,40.15
2019-02-14T11:14:35.743Z,38.05
2019-02-14T11:17:04.772Z,38.85
2019-02-14T11:19:35.440Z,37.08
2019-02-14T11:22:05.307Z,41.23
2019-02-14T11:24:34.281Z,36.60
2019-02-14T11:27:04.407Z,41.40
2019-02-14T11:32:01.858Z,38.88
2019-02-14T11:34:31.422Z,35.70
2019-02-14T11:37:01.999Z,37.78
2019-02-14T11:39:30.969Z,35.70
2019-02-14T11:42:02.745Z,39.03
2019-02-14T11:44:39.553Z,33.30
2019-02-14T11:47:04.471Z,32.55
2019-02-14T11:49:37.755Z,33.88
2019-02-14T11:52:11.795Z,33.60
2019-02-14T11:54:46.729Z,35.90
2019-02-14T11:57:16.059Z,34.48
2019-02-14T11:59:46.729Z,37.33
2019-02-14T12:02:15.721Z,32.63
2019-02-14T12:04:44.693Z,31.20
2019-02-14T12:07:18.908Z,29.92
2019-02-14T12:09:45.801Z,32.50
2019-02-14T12:12:14.795Z,32.88
2019-02-14T12:14:48.353Z,28.70
2019-02-14T12:17:17.395Z,29.48
2019-02-14T12:19:52.377Z,25.50
2019-02-14T12:22:26.311Z,25.17
2019-02-14T12:24:57.407Z,28.52
2019-02-14T12:27:26.357Z,30.72
2019-02-14T12:29:55.331Z,28.52
2019-02-14T12:32:27.853Z,27.10
2019-02-14T12:34:56.906Z,25.05
2019-02-14T12:37:27.462Z,24.98
2019-02-14T12:39:56.478Z,28.15
2019-02-14T12:42:28.594Z,23.52
2019-02-14T12:44:58.637Z,26.57
2019-02-14T12:47:28.640Z,29.55
2019-02-14T12:49:58.675Z,24.30
2019-02-14T12:54:56.203Z,28.07
2019-02-14T12:57:27.448Z,21.00
2019-02-14T12:59:58.157Z,22.48
2019-02-14T13:02:27.114Z,18.70
2019-02-14T13:04:57.718Z,18.42
2019-02-14T13:07:26.701Z,18.70
2019-02-14T13:09:58.448Z,20.25
2019-02-14T13:12:27.730Z,19.62
2019-02-14T13:14:57.749Z,19.87
2019-02-14T13:17:28.354Z,23.55
2019-02-14T13:19:57.327Z,21.90
2019-02-14T13:22:29.202Z,25.80
2019-02-14T13:24:58.172Z,20.85
2019-02-14T13:27:27.203Z,19.95
2019-02-14T13:29:58.032Z,19.48
2019-02-14T13:32:27.283Z,21.17
2019-02-14T13:34:56.316Z,22.17
2019-02-14T13:37:25.339Z,22.95
2019-02-14T13:39:54.335Z,21.10
2019-02-14T13:42:25.602Z,20.82
2019-02-14T13:44:55.108Z,18.67
2019-02-14T13:47:34.516Z,21.00
2019-02-14T13:50:04.258Z,21.10
2019-02-14T13:52:33.443Z,20.08
2019-02-14T13:55:05.600Z,21.30
2019-02-14T14:00:29.133Z,22.13
2019-02-14T14:02:58.140Z,21.90
2019-02-14T14:05:27.160Z,23.85
2019-02-14T14:07:58.991Z,20.77
2019-02-14T14:10:28.307Z,21.05
2019-02-14T14:13:00.843Z,22.73
2019-02-14T14:15:30.755Z,20.70
2019-02-14T14:18:01.381Z,21.70
2019-02-14T14:20:31.933Z,22.65
2019-02-14T14:23:01.029Z,22.80
2019-02-14T14:25:41.983Z,22.93
2019-02-14T14:28:10.313Z,19.92
2019-02-14T14:30:48.031Z,23.30
2019-02-14T14:33:22.909Z,20.70
2019-02-14T14:35:51.935Z,21.25
2019-02-14T14:38:20.941Z,22.42
2019-02-14T14:40:50.938Z,24.32
2019-02-14T14:46:06.865Z,23.80
2019-02-14T14:48:37.198Z,25.97
2019-02-14T14:51:06.173Z,22.30
2019-02-14T14:53:41.629Z,25.05
2019-02-14T14:56:13.222Z,21.70
2019-02-14T14:58:45.617Z,22.25
2019-02-14T15:01:12.844Z,20.52
2019-02-14T15:03:41.813Z,24.40
2019-02-14T15:06:16.379Z,21.45
2019-02-14T15:08:45.446Z,22.98
2019-02-14T15:11:14.466Z,24.77
2019-02-14T15:13:43.663Z,24.77
2019-02-14T15:16:15.893Z,24.55
2019-02-14T15:18:44.886Z,28.38
2019-02-14T15:21:14.102Z,24.87
2019-02-14T15:26:31.203Z,23.80
2019-02-14T15:29:01.725Z,24.02
2019-02-14T15:31:30.703Z,23.12
2019-02-14T15:34:00.307Z,27.40
2019-02-14T15:36:32.047Z,23.02
2019-02-14T15:39:03.310Z,22.45
2019-02-14T15:41:32.435Z,21.27
2019-02-14T15:44:02.262Z,25.57
2019-02-14T15:46:33.591Z,20.35
2019-02-14T15:49:02.631Z,19.42
2019-02-14T15:51:36.512Z,20.55
2019-02-14T15:54:07.329Z,22.30
2019-02-14T15:56:36.146Z,22.60
2019-02-14T15:59:08.418Z,18.77
2019-02-14T16:01:42.176Z,21.55
2019-02-14T16:04:12.853Z,19.00
2019-02-14T16:06:41.841Z,20.05
2019-02-14T16:09:12.657Z,21.50
2019-02-14T16:11:45.664Z,19.40
2019-02-14T16:14:19.224Z,17.82
2019-02-14T16:16:54.937Z,18.50
2019-02-14T16:19:25.458Z,18.15
2019-02-14T16:21:56.144Z,16.65
2019-02-14T16:24:26.816Z,19.32
2019-02-14T16:26:59.175Z,19.95
2019-02-14T16:29:28.659Z,17.73
2019-02-14T16:31:58.282Z,18.60
2019-02-14T16:34:27.238Z,19.90
2019-02-14T16:36:56.219Z,17.37
2019-02-14T16:39:25.844Z,20.90
2019-02-14T16:41:58.219Z,17.57
2019-02-14T16:44:27.669Z,22.25
2019-02-14T16:46:58.083Z,22.62
2019-02-14T16:49:27.108Z,24.77
2019-02-14T16:51:59.006Z,25.68
2019-02-14T16:54:31.236Z,23.38
2019-02-14T16:57:00.197Z,20.05
2019-02-14T16:59:34.795Z,18.90
2019-02-14T17:02:08.437Z,22.80
2019-02-14T17:04:41.736Z,22.70
2019-02-14T17:07:14.335Z,22.02
2019-02-14T17:09:46.449Z,21.55
2019-02-14T17:12:15.489Z,22.13
2019-02-14T17:14:44.510Z,23.32
2019-02-14T17:17:15.869Z,24.02
2019-02-14T17:19:44.875Z,23.40
2019-02-14T17:22:13.888Z,25.08
2019-02-14T17:24:42.849Z,21.68
2019-02-14T17:27:20.744Z,24.02
2019-02-14T17:29:56.086Z,25.35
2019-02-14T17:32:25.076Z,23.73
2019-02-14T17:34:56.367Z,23.85
2019-02-14T17:37:28.721Z,26.12
2019-02-14T17:40:00.515Z,23.00
2019-02-14T17:42:29.514Z,25.08
2019-02-14T17:47:48.296Z,25.85
2019-02-14T17:50:17.252Z,24.30
2019-02-14T17:52:46.513Z,24.87
2019-02-14T17:55:15.580Z,32.05
2019-02-14T17:57:46.422Z,27.00
2019-02-14T18:00:18.060Z,28.38
2019-02-14T18:02:51.034Z,30.05
2019-02-14T18:05:24.478Z,30.12
2019-02-14T18:07:53.698Z,31.35
2019-02-14T18:10:26.978Z,33.78
2019-02-14T18:12:57.006Z,33.30
2019-02-14T18:15:26.990Z,29.37
2019-02-14T18:17:58.993Z,30.00
2019-02-14T18:20:29.064Z,29.42
2019-02-14T18:22:59.076Z,32.30
2019-02-14T18:28:02.578Z,25.82
2019-02-14T18:30:31.686Z,30.55
2019-02-14T18:33:03.514Z,34.00
2019-02-14T18:35:32.484Z,30.50
2019-02-14T18:38:04.269Z,28.02
2019-02-14T18:40:34.486Z,30.08
2019-02-14T18:43:07.081Z,31.65
2019-02-14T18:45:41.928Z,32.88
2019-02-14T18:48:10.890Z,37.20
2019-02-14T18:50:42.136Z,29.32
2019-02-14T18:53:11.164Z,30.50
2019-02-14T18:55:43.172Z,33.73
2019-02-14T18:58:13.914Z,29.27
2019-02-14T19:00:47.627Z,34.50
2019-02-14T19:03:16.599Z,34.98
2019-02-14T19:05:51.332Z,33.48
2019-02-14T19:08:22.781Z,31.55
2019-02-14T19:10:51.817Z,32.85
2019-02-14T19:13:22.183Z,33.48
2019-02-14T19:15:51.546Z,31.07
2019-02-14T19:18:20.520Z,35.80
2019-02-14T19:20:49.485Z,32.70
2019-02-14T19:23:23.944Z,32.42
2019-02-14T19:25:53.069Z,32.58
2019-02-14T19:28:23.652Z,36.23
2019-02-14T19:30:53.173Z,33.48
2019-02-14T19:33:22.264Z,31.33
2019-02-14T19:35:51.232Z,32.98
2019-02-14T19:38:20.205Z,32.03
2019-02-14T19:40:49.281Z,30.12
2019-02-14T19:43:18.247Z,32.88
2019-02-14T19:45:47.293Z,29.70
2019-02-14T19:48:17.477Z,33.90
2019-02-14T19:50:53.572Z,28.90
2019-02-14T19:53:31.812Z,29.90
2019-02-14T19:56:01.074Z,31.60
2019-02-14T19:58:30.027Z,30.60
2019-02-14T20:01:02.660Z,29.55
2019-02-14T20:03:32.058Z,30.52
2019-02-14T20:06:03.788Z,33.45
2019-02-14T20:08:34.133Z,35.05
2019-02-14T20:11:06.420Z,29.15
2019-02-14T20:13:49.126Z,29.65
2019-02-14T20:16:09.389Z,32.58
2019-02-14T20:18:38.465Z,32.48
2019-02-14T20:21:07.448Z,34.00
2019-02-14T20:23:39.468Z,33.63
2019-02-14T20:26:12.679Z,32.33
2019-02-14T20:28:43.481Z,30.55
2019-02-14T20:31:12.449Z,31.17
2019-02-14T20:33:41.534Z,32.45
2019-02-14T20:36:11.003Z,31.93
2019-02-14T20:38:41.626Z,31.55
2019-02-14T20:41:10.645Z,34.13
2019-02-14T20:43:39.686Z,33.80
2019-02-14T20:46:08.650Z,31.30
2019-02-14T20:48:37.628Z,31.52
2019-02-14T20:51:06.596Z,31.62
2019-02-14T20:53:43.952Z,31.33
2019-02-14T20:56:16.468Z,31.55
2019-02-14T20:58:45.723Z,31.35
2019-02-14T21:01:15.068Z,33.18
2019-02-14T21:03:44.030Z,31.40
2019-02-14T21:06:19.419Z,30.57
2019-02-14T21:08:50.110Z,32.70
2019-02-14T21:11:19.192Z,29.92
2019-02-14T21:13:48.150Z,33.48
2019-02-14T21:16:17.334Z,31.60
2019-02-14T21:18:46.266Z,33.80
2019-02-14T21:21:15.265Z,32.98
2019-02-14T21:23:44.216Z,30.70
2019-02-14T21:26:15.722Z,35.95
2019-02-14T21:28:59.606Z,31.57
2019-02-14T21:31:30.203Z,33.40
2019-02-14T21:34:00.231Z,31.33
2019-02-14T21:36:32.898Z,33.60
2019-02-14T21:39:01.663Z,33.23
2019-02-14T21:41:30.669Z,29.57
2019-02-14T21:44:02.205Z,30.97
2019-02-14T21:46:34.860Z,32.45
2019-02-14T21:49:05.716Z,29.65
2019-02-14T21:51:36.455Z,28.38
2019-02-14T21:54:07.842Z,29.63
2019-02-14T21:56:36.840Z,33.33
2019-02-14T21:59:06.402Z,31.85
2019-02-14T22:01:38.646Z,35.23
2019-02-14T22:04:08.958Z,31.97
2019-02-14T22:06:38.043Z,28.50
2019-02-14T22:09:07.021Z,30.92
2019-02-14T22:11:37.874Z,31.53
2019-02-14T22:14:07.218Z,32.03
2019-02-14T22:16:36.242Z,30.10
2019-02-14T22:19:11.319Z,28.07
2019-02-14T22:21:40.345Z,30.82
2019-02-14T22:24:09.331Z,29.20
2019-02-14T22:26:38.285Z,29.70
2019-02-14T22:29:07.299Z,27.25
2019-02-14T22:31:36.289Z,27.02
2019-02-14T22:34:12.814Z,29.15
2019-02-14T22:36:41.975Z,28.85
2019-02-14T22:39:10.933Z,31.73
2019-02-14T22:41:40.570Z,28.65
2019-02-14T22:44:09.540Z,28.70
2019-02-14T22:46:41.086Z,27.40
2019-02-14T22:49:10.045Z,27.82
2019-02-14T22:51:40.999Z,28.65
2019-02-14T22:54:09.677Z,27.77
2019-02-14T22:56:38.689Z,29.85
2019-02-14T22:59:10.193Z,26.50
2019-02-14T23:01:39.837Z,23.47
2019-02-14T23:04:08.806Z,26.85
2019-02-14T23:06:40.853Z,28.75
2019-02-14T23:09:09.860Z,27.50
2019-02-14T23:11:38.915Z,27.25
2019-02-14T23:14:07.917Z,26.07
2019-02-14T23:16:37.024Z,27.32
2019-02-14T23:19:05.992Z,26.62
2019-02-14T23:21:34.994Z,28.17
2019-02-14T23:24:03.951Z,26.48
2019-02-14T23:26:34.116Z,24.72
2019-02-14T23:29:03.154Z,29.65
2019-02-14T23:31:34.914Z,26.30
2019-02-14T23:34:10.356Z,25.68
2019-02-14T23:36:39.334Z,24.40
2019-02-14T23:39:12.282Z,26.17
2019-02-14T23:41:44.340Z,24.20
2019-02-14T23:44:13.785Z,24.80
2019-02-14T23:46:42.778Z,24.60
2019-02-14T23:49:11.749Z,24.55
2019-02-14T23:51:43.650Z,24.92
2019-02-14T23:54:12.616Z,23.55
2019-02-14T23:56:45.377Z,23.00
2019-02-14T23:59:14.668Z,24.20
